Tankerton, United Kingdom
Current Conditions -  °F | °C
As of 4:50 AM on Tuesday 21 Oct 2014 (Local Time) from EGMC Reporting Station
Scattered Clouds Scattered Clouds  
Wind Chill: 14°   Ceiling: Unl
Heat Index: 14°   Visibility: 6mi
Dew Point: 11°   Wind: 15mph
Humidity: 82%   Direction: 220°SW
Pressure: 29.68"   Gusts: NA
Location:  51.36°N, 1.05°E
Report Text: EGMC 210350Z 22013KT 9999 FEW021 SCT035 14/11 Q1005
Loading
Personal Weather Stations






























Interactive Weather Map
Tropical Storm Tracking
New forecast layout! Learn more

10-Day Weather Forecast

Advertisements
Track Severe Weather on mobile